createdAt,value
2023-04-11T00:02:17.964Z,5.50
2023-04-11T00:04:45.552Z,5.72
2023-04-11T00:09:46.109Z,4.15
2023-04-11T00:12:13.272Z,5.82
2023-04-11T00:14:52.069Z,6.97
2023-04-11T00:17:19.320Z,4.25
2023-04-11T00:19:53.067Z,4.78
2023-04-11T00:22:20.338Z,5.22
2023-04-11T00:25:00.061Z,13.55
2023-04-11T00:27:27.348Z,8.30
2023-04-11T00:29:56.996Z,5.30
2023-04-11T00:32:30.971Z,7.10
2023-04-11T00:34:58.251Z,7.20
2023-04-11T00:37:42.998Z,4.75
2023-04-11T00:40:12.188Z,3.97
2023-04-11T00:42:39.772Z,4.07
2023-04-11T00:47:53.956Z,7.35
2023-04-11T00:50:29.161Z,8.38
2023-04-11T00:52:57.201Z,10.32
2023-04-11T00:55:24.584Z,7.22
2023-04-11T00:58:01.959Z,7.60
2023-04-11T01:00:29.153Z,6.93
2023-04-11T01:03:03.234Z,7.53
2023-04-11T01:05:32.376Z,5.15
2023-04-11T01:07:59.911Z,6.88
2023-04-11T01:13:03.380Z,10.60
2023-04-11T01:15:30.937Z,7.95
2023-04-11T01:20:38.733Z,5.40
2023-04-11T01:23:06.901Z,3.17
2023-04-11T01:25:42.999Z,3.05
2023-04-11T01:28:16.983Z,5.15
2023-04-11T01:30:51.113Z,5.65
2023-04-11T01:33:18.355Z,6.72
2023-04-11T01:35:45.576Z,3.53
2023-04-11T01:38:18.997Z,10.10
2023-04-11T01:40:46.548Z,5.15
2023-04-11T01:45:47.269Z,5.55
2023-04-11T01:48:16.097Z,4.63
2023-04-11T01:50:50.057Z,3.40
2023-04-11T01:53:17.474Z,6.05
2023-04-11T01:55:44.575Z,4.35
2023-04-11T01:58:18.006Z,4.75
2023-04-11T02:00:45.324Z,3.97
2023-04-11T02:03:19.150Z,7.43
2023-04-11T02:05:46.520Z,7.10
2023-04-11T02:08:13.616Z,5.10
2023-04-11T02:10:47.013Z,6.78
2023-04-11T02:13:14.282Z,5.75
2023-04-11T02:15:48.104Z,7.07
2023-04-11T02:18:15.693Z,6.82
2023-04-11T02:23:16.093Z,6.28
2023-04-11T02:25:50.007Z,4.45
2023-04-11T02:28:24.207Z,5.53
2023-04-11T02:30:51.440Z,14.95
2023-04-11T02:33:19.480Z,7.38
2023-04-11T02:35:54.086Z,9.93
2023-04-11T02:38:21.438Z,8.82
2023-04-11T02:40:54.987Z,5.75
2023-04-11T02:43:22.073Z,5.07
2023-04-11T02:46:02.309Z,7.60
2023-04-11T02:48:36.887Z,6.05
2023-04-11T02:51:11.200Z,8.05
2023-04-11T02:53:38.351Z,5.90
2023-04-11T02:56:06.753Z,8.43
2023-04-11T02:58:41.120Z,5.10
2023-04-11T03:01:11.201Z,11.90
2023-04-11T03:03:49.076Z,7.97
2023-04-11T03:06:16.442Z,10.80
2023-04-11T03:08:43.523Z,5.57
2023-04-11T03:11:17.089Z,7.53
2023-04-11T03:13:44.538Z,6.65
2023-04-11T03:16:20.173Z,7.05
2023-04-11T03:18:47.456Z,7.18
2023-04-11T03:21:14.740Z,6.40
2023-04-11T03:23:48.154Z,7.78
2023-04-11T03:26:35.909Z,8.90
2023-04-11T03:29:10.030Z,9.13
2023-04-11T03:31:37.217Z,8.32
2023-04-11T03:34:04.319Z,8.95
2023-04-11T03:36:39.107Z,7.55
2023-04-11T03:39:06.448Z,6.07
2023-04-11T03:41:39.963Z,7.45
2023-04-11T03:44:07.392Z,8.95
2023-04-11T03:46:34.738Z,4.05
2023-04-11T03:49:09.021Z,8.45
2023-04-11T03:51:36.234Z,9.93
2023-04-11T03:54:10.190Z,8.23
2023-04-11T03:56:37.347Z,10.63
2023-04-11T03:59:04.464Z,11.85
2023-04-11T04:01:38.164Z,11.68
2023-04-11T04:04:06.559Z,9.32
2023-04-11T04:06:41.127Z,8.65
2023-04-11T04:09:08.295Z,7.05
2023-04-11T04:11:35.392Z,10.18
2023-04-11T04:14:09.091Z,5.63
2023-04-11T04:16:36.323Z,9.82
2023-04-11T04:19:10.157Z,8.32
2023-04-11T04:21:38.051Z,8.75
2023-04-11T04:24:05.506Z,7.47
2023-04-11T04:26:39.038Z,6.90
2023-04-11T04:29:06.555Z,7.07
2023-04-11T04:34:10.741Z,8.63
2023-04-11T04:36:54.028Z,9.48
2023-04-11T04:39:21.324Z,10.20
2023-04-11T04:41:49.053Z,8.65
2023-04-11T04:44:23.011Z,11.43
2023-04-11T04:46:53.670Z,9.10
2023-04-11T04:49:28.106Z,9.02
2023-04-11T04:51:55.485Z,11.27
2023-04-11T04:54:23.769Z,8.75
2023-04-11T04:56:57.038Z,8.65
2023-04-11T04:59:24.211Z,11.05
2023-04-11T05:01:58.175Z,11.98
2023-04-11T05:04:25.875Z,9.40
2023-04-11T05:09:27.225Z,11.77
2023-04-11T05:11:54.383Z,13.80
2023-04-11T05:14:21.467Z,9.98
2023-04-11T05:16:55.056Z,7.50
2023-04-11T05:19:22.249Z,12.82
2023-04-11T05:21:56.290Z,9.85
2023-04-11T05:24:23.458Z,7.35
2023-04-11T05:27:04.223Z,13.18
2023-04-11T05:29:31.353Z,8.02
2023-04-11T05:31:58.502Z,10.32
2023-04-11T05:34:32.022Z,9.65
2023-04-11T05:36:59.386Z,8.98
2023-04-11T05:39:33.246Z,8.85
2023-04-11T05:42:01.601Z,9.70
2023-04-11T05:44:28.676Z,12.20
2023-04-11T05:47:03.061Z,10.32
2023-04-11T05:49:30.214Z,13.35
2023-04-11T05:52:03.968Z,8.68
2023-04-11T05:54:41.064Z,10.30
2023-04-11T05:57:08.281Z,9.93
2023-04-11T05:59:36.145Z,10.40
2023-04-11T06:02:10.163Z,12.68
2023-04-11T06:04:37.535Z,14.02
2023-04-11T06:07:12.074Z,8.95
2023-04-11T06:09:42.068Z,11.88
2023-04-11T06:12:09.400Z,17.60
2023-04-11T06:14:43.107Z,9.07
2023-04-11T06:17:10.325Z,12.18
2023-04-11T06:19:44.008Z,17.38
2023-04-11T06:22:11.265Z,13.82
2023-04-11T06:24:39.171Z,11.38
2023-04-11T06:27:13.067Z,13.00
2023-04-11T06:29:40.903Z,11.45
2023-04-11T06:32:15.067Z,14.98
2023-04-11T06:34:42.455Z,9.55
2023-04-11T06:37:09.714Z,9.98
2023-04-11T06:39:44.074Z,12.80
2023-04-11T06:42:11.232Z,12.88
2023-04-11T06:44:38.369Z,10.90
2023-04-11T06:47:12.242Z,9.77
2023-04-11T06:49:39.477Z,10.00
2023-04-11T06:52:06.981Z,10.55
2023-04-11T06:54:41.092Z,15.10
2023-04-11T06:57:10.129Z,12.35
2023-04-11T06:59:44.105Z,13.75
2023-04-11T07:02:11.509Z,15.05
2023-04-11T07:04:38.758Z,14.43
2023-04-11T07:07:13.094Z,12.05
2023-04-11T07:09:40.484Z,14.20
2023-04-11T07:12:14.016Z,14.77
2023-04-11T07:14:41.237Z,12.95
2023-04-11T07:17:08.501Z,13.85
2023-04-11T07:19:41.976Z,16.48
2023-04-11T07:22:09.238Z,10.05
2023-04-11T07:24:43.127Z,16.00
2023-04-11T07:27:17.224Z,12.38
2023-04-11T07:29:51.040Z,17.23
2023-04-11T07:32:18.381Z,13.35
2023-04-11T07:34:45.534Z,14.60
2023-04-11T07:37:20.091Z,17.95
2023-04-11T07:39:47.265Z,18.38
2023-04-11T07:42:21.217Z,16.60
2023-04-11T07:44:48.540Z,14.52
2023-04-11T07:47:15.869Z,12.80
2023-04-11T07:49:50.153Z,14.88
2023-04-11T07:52:17.305Z,16.23
2023-04-11T07:54:51.022Z,15.30
2023-04-11T07:57:18.426Z,16.65
2023-04-11T07:59:46.326Z,17.52
2023-04-11T08:02:20.477Z,13.43
2023-04-11T08:04:47.863Z,15.07
2023-04-11T08:07:15.267Z,17.25
2023-04-11T08:09:49.144Z,19.23
2023-04-11T08:12:16.722Z,14.13
2023-04-11T08:17:27.150Z,16.02
2023-04-11T08:20:04.114Z,18.33
2023-04-11T08:22:33.195Z,15.60
2023-04-11T08:25:00.374Z,18.42
2023-04-11T08:27:34.003Z,17.50
2023-04-11T08:30:01.849Z,18.52
2023-04-11T08:32:35.075Z,17.60
2023-04-11T08:35:02.562Z,18.00
2023-04-11T08:37:30.341Z,17.17
2023-04-11T08:40:04.242Z,16.77
2023-04-11T08:42:31.934Z,18.90
2023-04-11T08:45:00.246Z,18.95
2023-04-11T08:47:34.112Z,19.02
2023-04-11T08:50:01.532Z,19.33
2023-04-11T08:52:36.092Z,19.80
2023-04-11T08:55:04.404Z,19.05
2023-04-11T08:57:31.960Z,19.05
2023-04-11T09:00:07.188Z,21.90
2023-04-11T09:02:34.431Z,21.20
2023-04-11T09:05:08.182Z,19.88
2023-04-11T09:07:50.086Z,19.98
2023-04-11T09:10:27.139Z,20.60
2023-04-11T09:12:57.669Z,20.40
2023-04-11T09:15:26.343Z,22.30
2023-04-11T09:18:01.080Z,23.08
2023-04-11T09:20:31.823Z,20.48
2023-04-11T09:23:06.301Z,22.13
2023-04-11T09:25:59.028Z,21.02
2023-04-11T09:28:33.119Z,26.63
2023-04-11T09:31:00.821Z,24.02
2023-04-11T09:33:31.657Z,20.92
2023-04-11T09:36:05.370Z,23.00
2023-04-11T09:38:33.774Z,23.45
2023-04-11T09:41:02.268Z,20.50
2023-04-11T09:43:56.382Z,21.52
2023-04-11T09:46:31.117Z,20.02
2023-04-11T09:48:58.386Z,20.77
2023-04-11T09:51:39.028Z,23.77
2023-04-11T09:54:06.602Z,22.20
2023-04-11T09:59:11.271Z,25.45
2023-04-11T10:01:45.130Z,23.63
2023-04-11T10:04:13.804Z,23.65
2023-04-11T10:07:08.037Z,25.45
2023-04-11T10:09:38.843Z,22.75
2023-04-11T10:12:13.183Z,23.58
2023-04-11T10:14:41.794Z,23.17
2023-04-11T10:17:25.180Z,23.75
2023-04-11T10:19:58.924Z,22.05
2023-04-11T10:22:48.084Z,22.05
2023-04-11T10:25:21.910Z,23.38
2023-04-11T10:28:10.038Z,24.20
2023-04-11T10:30:40.227Z,21.65
2023-04-11T10:33:19.528Z,25.27
2023-04-11T10:36:10.564Z,22.05
2023-04-11T10:38:45.220Z,28.42
2023-04-11T10:41:33.512Z,27.35
2023-04-11T10:44:25.121Z,25.63
2023-04-11T10:46:54.232Z,24.83
2023-04-11T10:49:45.481Z,25.20
2023-04-11T10:52:17.281Z,26.70
2023-04-11T10:54:53.328Z,24.58
2023-04-11T10:57:21.662Z,26.88
2023-04-11T10:59:51.888Z,24.70
2023-04-11T11:02:28.383Z,31.35
2023-04-11T11:05:03.255Z,27.60
2023-04-11T11:07:37.136Z,25.33
2023-04-11T11:10:04.374Z,22.77
2023-04-11T11:12:38.334Z,25.45
2023-04-11T11:15:15.090Z,21.45
2023-04-11T11:17:55.274Z,23.08
2023-04-11T11:20:25.392Z,25.52
2023-04-11T11:26:05.305Z,26.17
2023-04-11T11:31:19.136Z,26.38
2023-04-11T11:33:46.267Z,23.38
2023-04-11T11:36:22.248Z,27.85
2023-04-11T11:38:49.553Z,25.08
2023-04-11T11:41:23.372Z,21.25
2023-04-11T11:43:50.765Z,26.88
2023-04-11T11:46:17.986Z,23.35
2023-04-11T11:49:05.459Z,21.83
2023-04-11T11:51:42.493Z,25.83
2023-04-11T11:54:17.137Z,19.92
2023-04-11T11:56:56.075Z,22.75
2023-04-11T11:59:29.378Z,22.92
2023-04-11T12:02:03.179Z,17.48
2023-04-11T12:04:32.172Z,20.85
2023-04-11T12:07:15.086Z,18.23
2023-04-11T12:09:42.643Z,17.40
2023-04-11T12:14:44.188Z,15.80
2023-04-11T12:17:11.357Z,20.85
2023-04-11T12:19:49.130Z,19.60
2023-04-11T12:22:16.214Z,17.05
2023-04-11T12:24:50.068Z,20.80
2023-04-11T12:27:24.270Z,16.88
2023-04-11T12:30:04.115Z,18.55
2023-04-11T12:32:33.887Z,17.30
2023-04-11T12:35:01.531Z,16.65
2023-04-11T12:40:06.784Z,14.82
2023-04-11T12:42:39.025Z,14.10
2023-04-11T12:45:16.173Z,14.93
2023-04-11T12:47:43.716Z,17.52
2023-04-11T12:52:45.210Z,15.27
2023-04-11T13:00:57.262Z,13.35
2023-04-11T13:03:33.738Z,14.52
2023-04-11T13:06:01.180Z,17.17
2023-04-11T13:08:28.439Z,13.38
2023-04-11T13:11:02.340Z,14.27
2023-04-11T13:13:29.625Z,14.10
2023-04-11T13:15:56.758Z,17.60
2023-04-11T13:18:30.095Z,15.77
2023-04-11T13:21:04.295Z,14.45
2023-04-11T13:23:31.403Z,18.45
2023-04-11T13:26:26.081Z,19.50
2023-04-11T13:29:00.353Z,17.80
2023-04-11T13:31:27.755Z,16.45
2023-04-11T13:33:56.723Z,16.23
2023-04-11T13:36:30.115Z,14.82
2023-04-11T13:38:58.301Z,13.25
2023-04-11T13:41:32.232Z,14.93
2023-04-11T13:43:59.384Z,17.88
2023-04-11T13:46:27.349Z,14.20
2023-04-11T13:49:01.553Z,15.63
2023-04-11T13:51:28.792Z,16.95
2023-04-11T13:53:56.056Z,16.95
2023-04-11T13:56:30.279Z,15.30
2023-04-11T13:58:57.700Z,15.20
2023-04-11T14:03:58.859Z,16.10
2023-04-11T14:06:26.314Z,14.80
2023-04-11T14:09:00.393Z,14.70
2023-04-11T14:11:27.595Z,15.75
2023-04-11T14:13:55.049Z,20.65
2023-04-11T14:18:56.404Z,12.55
2023-04-11T14:21:30.175Z,11.27
2023-04-11T14:23:57.615Z,15.45
2023-04-11T14:29:05.166Z,14.73
2023-04-11T14:31:32.474Z,9.57
2023-04-11T14:34:06.152Z,14.45
2023-04-11T14:36:33.617Z,9.38
2023-04-11T14:39:00.740Z,12.50
2023-04-11T14:41:34.116Z,10.65
2023-04-11T14:44:01.736Z,10.32
2023-04-11T14:49:02.444Z,11.98
2023-04-11T14:51:29.808Z,11.25
2023-04-11T14:54:03.149Z,10.13
2023-04-11T14:56:30.638Z,10.23
2023-04-11T14:59:04.175Z,11.18
2023-04-11T15:01:31.775Z,14.20
2023-04-11T15:03:59.169Z,16.15
2023-04-11T15:06:33.275Z,13.70
2023-04-11T15:09:00.453Z,12.32
2023-04-11T15:11:34.341Z,10.85
2023-04-11T15:14:01.694Z,14.75
2023-04-11T15:16:28.960Z,10.15
2023-04-11T15:19:03.335Z,13.73
2023-04-11T15:21:30.689Z,14.23
2023-04-11T15:24:04.252Z,16.75
2023-04-11T15:26:38.189Z,17.48
2023-04-11T15:29:25.355Z,14.43
2023-04-11T15:31:52.754Z,9.40
2023-04-11T15:34:22.002Z,11.95
2023-04-11T15:36:56.231Z,10.80
2023-04-11T15:39:23.830Z,11.18
2023-04-11T15:44:25.422Z,11.88
2023-04-11T15:46:52.544Z,14.40
2023-04-11T15:49:26.280Z,11.27
2023-04-11T15:51:53.465Z,17.20
2023-04-11T15:54:28.352Z,11.40
2023-04-11T15:56:57.313Z,11.43
2023-04-11T15:59:25.126Z,12.63
2023-04-11T16:01:59.346Z,10.75
2023-04-11T16:04:27.204Z,10.20
2023-04-11T16:07:01.493Z,13.07
2023-04-11T16:09:28.741Z,12.73
2023-04-11T16:11:56.885Z,10.07
2023-04-11T16:14:31.298Z,11.63
2023-04-11T16:16:58.503Z,17.17
2023-04-11T16:19:32.376Z,12.20
2023-04-11T16:21:59.603Z,14.65
2023-04-11T16:24:28.784Z,17.40
2023-04-11T16:27:04.361Z,18.08
2023-04-11T16:29:31.895Z,16.23
2023-04-11T16:34:33.237Z,12.80
2023-04-11T16:37:01.312Z,10.45
2023-04-11T16:39:28.510Z,11.90
2023-04-11T16:42:02.547Z,15.27
2023-04-11T16:44:29.754Z,17.55
2023-04-11T16:47:03.206Z,10.63
2023-04-11T16:49:30.454Z,15.77
2023-04-11T16:51:57.528Z,12.25
2023-04-11T16:54:31.288Z,14.05
2023-04-11T16:56:58.500Z,11.77
2023-04-11T16:59:25.605Z,12.05
2023-04-11T17:01:59.391Z,17.15
2023-04-11T17:04:27.148Z,14.63
2023-04-11T17:07:02.314Z,18.70
2023-04-11T17:09:29.984Z,11.43
2023-04-11T17:11:57.746Z,18.02
2023-04-11T17:14:31.264Z,13.15
2023-04-11T17:16:58.546Z,13.18
2023-04-11T17:19:32.309Z,8.88
2023-04-11T17:21:59.617Z,15.02
2023-04-11T17:24:26.995Z,12.32
2023-04-11T17:29:35.242Z,5.63
2023-04-11T17:32:09.293Z,8.00
2023-04-11T17:34:36.789Z,10.35
2023-04-11T17:37:03.920Z,8.57
2023-04-11T17:39:37.267Z,12.55
2023-04-11T17:42:04.580Z,11.95
2023-04-11T17:44:31.667Z,9.05
2023-04-11T17:47:05.353Z,12.85
2023-04-11T17:49:32.646Z,8.68
2023-04-11T17:52:00.019Z,10.10
2023-04-11T17:57:01.536Z,10.30
2023-04-11T17:59:35.272Z,8.40
2023-04-11T18:02:02.743Z,9.80
2023-04-11T18:07:04.422Z,9.35
2023-04-11T18:09:31.931Z,10.13
2023-04-11T18:14:34.088Z,8.73
2023-04-11T18:17:08.617Z,7.95
2023-04-11T18:19:36.144Z,12.45
2023-04-11T18:24:37.288Z,9.18
2023-04-11T18:27:24.210Z,10.23
2023-04-11T18:29:58.324Z,11.98
2023-04-11T18:32:27.992Z,18.83
2023-04-11T18:34:56.926Z,14.48
2023-04-11T18:37:31.731Z,12.52
2023-04-11T18:39:58.992Z,14.73
2023-04-11T18:42:32.343Z,7.35
2023-04-11T18:45:00.204Z,10.52
2023-04-11T18:47:27.619Z,8.98
2023-04-11T18:50:01.460Z,10.90
2023-04-11T18:52:29.202Z,8.00
2023-04-11T18:55:03.397Z,11.48
2023-04-11T18:57:33.882Z,8.32
2023-04-11T19:00:19.080Z,6.28
2023-04-11T19:02:47.603Z,9.70
2023-04-11T19:05:23.918Z,7.22
2023-04-11T19:07:51.584Z,8.68
2023-04-11T19:12:52.333Z,11.57
2023-04-11T19:15:19.844Z,16.90
2023-04-11T19:17:47.019Z,12.60
2023-04-11T19:20:22.231Z,10.10
2023-04-11T19:22:49.380Z,7.68
2023-04-11T19:25:23.411Z,7.95
2023-04-11T19:27:57.551Z,18.45
2023-04-11T19:30:31.360Z,5.80
2023-04-11T19:33:05.286Z,6.80
2023-04-11T19:35:32.576Z,7.30
2023-04-11T19:38:08.373Z,9.43
2023-04-11T19:40:36.038Z,8.85
2023-04-11T19:43:03.515Z,9.13
2023-04-11T19:48:04.660Z,11.85
2023-04-11T19:50:32.049Z,10.40
2023-04-11T19:53:08.270Z,11.75
2023-04-11T19:55:35.667Z,7.10
2023-04-11T19:58:02.890Z,12.02
2023-04-11T20:00:41.281Z,9.55
2023-04-11T20:03:14.293Z,6.95
2023-04-11T20:05:49.428Z,6.97
2023-04-11T20:08:17.778Z,12.25
2023-04-11T20:10:45.040Z,10.65
2023-04-11T20:13:18.528Z,11.70
2023-04-11T20:15:45.922Z,10.07
2023-04-11T20:18:19.370Z,9.80
2023-04-11T20:20:47.076Z,6.32
2023-04-11T20:23:16.234Z,10.52
2023-04-11T20:25:50.413Z,10.38
2023-04-11T20:28:25.274Z,7.68
2023-04-11T20:31:05.538Z,10.02
2023-04-11T20:33:32.873Z,11.50
2023-04-11T20:36:00.209Z,8.80
2023-04-11T20:38:34.298Z,15.43
2023-04-11T20:41:03.773Z,9.98
2023-04-11T20:43:37.463Z,15.88
2023-04-11T20:46:08.300Z,9.32
2023-04-11T20:48:35.906Z,11.38
2023-04-11T20:53:36.711Z,5.40
2023-04-11T20:56:11.584Z,8.75
2023-04-11T20:58:39.280Z,9.60
2023-04-11T21:01:06.547Z,10.90
2023-04-11T21:03:43.632Z,11.88
2023-04-11T21:06:10.984Z,8.13
2023-04-11T21:08:44.355Z,7.25
2023-04-11T21:11:11.519Z,7.60
2023-04-11T21:13:38.644Z,10.15
2023-04-11T21:16:12.458Z,10.80
2023-04-11T21:18:39.693Z,12.95
2023-04-11T21:21:14.364Z,13.73
2023-04-11T21:23:42.477Z,10.27
2023-04-11T21:26:09.579Z,10.85
2023-04-11T21:28:43.429Z,10.95
2023-04-11T21:31:10.750Z,12.73
2023-04-11T21:33:44.479Z,8.35
2023-04-11T21:36:11.822Z,8.10
2023-04-11T21:38:38.941Z,11.30
2023-04-11T21:41:13.378Z,9.52
2023-04-11T21:43:41.004Z,8.32
2023-04-11T21:48:43.085Z,13.70
2023-04-11T21:51:10.984Z,10.52
2023-04-11T21:53:44.351Z,9.70
2023-04-11T21:56:11.645Z,8.55
2023-04-11T21:58:38.823Z,14.13
2023-04-11T22:01:19.391Z,11.20
2023-04-11T22:03:50.269Z,10.02
2023-04-11T22:06:25.452Z,15.15
2023-04-11T22:09:01.439Z,16.35
2023-04-11T22:11:36.409Z,9.90
2023-04-11T22:14:10.395Z,16.65
2023-04-11T22:16:37.665Z,10.43
2023-04-11T22:19:04.773Z,8.93
2023-04-11T22:21:39.398Z,17.52
2023-04-11T22:24:09.394Z,11.40
2023-04-11T22:26:43.438Z,12.07
2023-04-11T22:29:32.272Z,8.82
2023-04-11T22:34:34.570Z,9.88
2023-04-11T22:37:01.704Z,11.13
2023-04-11T22:39:36.314Z,11.48
2023-04-11T22:42:03.904Z,14.15
2023-04-11T22:47:06.758Z,8.13
2023-04-11T22:49:47.326Z,9.10
2023-04-11T22:52:15.161Z,10.55
2023-04-11T22:54:49.347Z,9.73
2023-04-11T22:57:16.634Z,7.50
2023-04-11T22:59:50.443Z,11.05
2023-04-11T23:02:17.733Z,9.68
2023-04-11T23:04:45.136Z,12.43
2023-04-11T23:07:19.355Z,8.10
2023-04-11T23:09:47.221Z,10.20
2023-04-11T23:12:21.465Z,17.83
2023-04-11T23:14:50.378Z,17.38
2023-04-11T23:17:17.534Z,14.35
2023-04-11T23:19:51.343Z,9.93
2023-04-11T23:22:18.536Z,7.38
2023-04-11T23:24:52.362Z,12.57
2023-04-11T23:27:39.292Z,9.18
2023-04-11T23:30:14.460Z,8.98
2023-04-11T23:32:42.818Z,13.60
2023-04-11T23:35:10.734Z,11.48
2023-04-11T23:37:44.366Z,6.40
2023-04-11T23:40:20.383Z,10.07
2023-04-11T23:42:54.391Z,16.50
2023-04-11T23:45:22.696Z,17.05
2023-04-11T23:47:53.185Z,10.68
2023-04-11T23:50:27.412Z,11.38
2023-04-11T23:52:54.847Z,8.20
2023-04-11T23:55:28.519Z,7.88
2023-04-11T23:57:55.791Z,14.18
